Terminal Aerodrome Forecast
Issued by NWS Sioux Falls, SD

Home | Current Version | Previous Version | Graphics & Text | Print | Product List | Glossary Off
Versions: 1 2 3 4 5 6 7 8 9 10 11 12 13 14 15 16 17

000
FTUS43 KFSD 141120
TAFSUX
TAF
KSUX 141120Z 1412/1512 16008KT P6SM OVC030
     FM141500 18008KT P6SM BKN015
     FM141800 21009KT P6SM BKN015
     FM142000 23009KT P6SM VCSH BKN015
      TEMPO 1422/1501 2SM -SN
     FM150200 33017G28KT P6SM BKN050
     FM150600 33016G24KT P6SM SCT045=

USA.gov is the U.S. government's official web portal to all federal, state and local government web resources and services.